sensor_id;sensor_type;location;lat;lon;timestamp;P1;durP1;ratioP1;P2;durP2;ratioP2
74945;SDS011;63509;45.250;38.102;2023-02-24T00:02:24;13.38;;;5.82;;
74945;SDS011;63509;45.250;38.102;2023-02-24T00:04:49;14.75;;;6.50;;
74945;SDS011;63509;45.250;38.102;2023-02-24T00:07:16;20.77;;;7.50;;
74945;SDS011;63509;45.250;38.102;2023-02-24T00:09:42;11.07;;;5.50;;
74945;SDS011;63509;45.250;38.102;2023-02-24T00:12:14;12.45;;;6.88;;
74945;SDS011;63509;45.250;38.102;2023-02-24T00:14:43;11.48;;;6.10;;
74945;SDS011;63509;45.250;38.102;2023-02-24T00:17:10;7.60;;;3.90;;
74945;SDS011;63509;45.250;38.102;2023-02-24T00:19:39;11.65;;;5.18;;
74945;SDS011;63509;45.250;38.102;2023-02-24T00:22:06;16.67;;;5.25;;
74945;SDS011;63509;45.250;38.102;2023-02-24T00:24:33;10.38;;;5.97;;
74945;SDS011;63509;45.250;38.102;2023-02-24T00:27:00;11.95;;;5.45;;
74945;SDS011;63509;45.250;38.102;2023-02-24T00:29:32;9.23;;;4.97;;
74945;SDS011;63509;45.250;38.102;2023-02-24T00:31:59;15.77;;;6.63;;
74945;SDS011;63509;45.250;38.102;2023-02-24T00:34:25;15.38;;;6.10;;
74945;SDS011;63509;45.250;38.102;2023-02-24T00:36:55;30.38;;;8.82;;
74945;SDS011;63509;45.250;38.102;2023-02-24T00:39:22;10.93;;;5.32;;
74945;SDS011;63509;45.250;38.102;2023-02-24T00:41:53;19.35;;;6.28;;
74945;SDS011;63509;45.250;38.102;2023-02-24T00:44:29;15.00;;;6.10;;
74945;SDS011;63509;45.250;38.102;2023-02-24T00:47:00;12.95;;;6.65;;
74945;SDS011;63509;45.250;38.102;2023-02-24T00:49:27;12.88;;;6.68;;
74945;SDS011;63509;45.250;38.102;2023-02-24T00:51:53;11.90;;;5.43;;
74945;SDS011;63509;45.250;38.102;2023-02-24T00:54:20;17.10;;;6.10;;
74945;SDS011;63509;45.250;38.102;2023-02-24T00:56:49;11.63;;;5.20;;
74945;SDS011;63509;45.250;38.102;2023-02-24T00:59:16;12.27;;;6.88;;
74945;SDS011;63509;45.250;38.102;2023-02-24T01:01:48;11.50;;;5.55;;
74945;SDS011;63509;45.250;38.102;2023-02-24T01:04:15;9.65;;;5.40;;
74945;SDS011;63509;45.250;38.102;2023-02-24T01:06:44;12.10;;;7.82;;
74945;SDS011;63509;45.250;38.102;2023-02-24T01:09:12;10.70;;;5.47;;
74945;SDS011;63509;45.250;38.102;2023-02-24T01:11:43;15.45;;;6.38;;
74945;SDS011;63509;45.250;38.102;2023-02-24T01:14:43;9.82;;;5.10;;
74945;SDS011;63509;45.250;38.102;2023-02-24T01:17:15;12.45;;;6.38;;
74945;SDS011;63509;45.250;38.102;2023-02-24T01:19:42;13.77;;;6.18;;
74945;SDS011;63509;45.250;38.102;2023-02-24T01:22:10;13.18;;;6.75;;
74945;SDS011;63509;45.250;38.102;2023-02-24T01:24:40;9.68;;;5.47;;
74945;SDS011;63509;45.250;38.102;2023-02-24T01:27:08;16.75;;;6.22;;
74945;SDS011;63509;45.250;38.102;2023-02-24T01:29:36;12.45;;;6.20;;
74945;SDS011;63509;45.250;38.102;2023-02-24T01:32:06;21.45;;;6.85;;
74945;SDS011;63509;45.250;38.102;2023-02-24T01:34:39;15.10;;;7.43;;
74945;SDS011;63509;45.250;38.102;2023-02-24T01:37:07;15.02;;;7.43;;
74945;SDS011;63509;45.250;38.102;2023-02-24T01:39:33;17.27;;;6.82;;
74945;SDS011;63509;45.250;38.102;2023-02-24T01:42:02;15.07;;;6.75;;
74945;SDS011;63509;45.250;38.102;2023-02-24T01:46:58;6.88;;;4.10;;
74945;SDS011;63509;45.250;38.102;2023-02-24T01:49:31;16.50;;;4.93;;
74945;SDS011;63509;45.250;38.102;2023-02-24T01:52:10;9.27;;;5.35;;
74945;SDS011;63509;45.250;38.102;2023-02-24T01:55:05;10.20;;;6.20;;
74945;SDS011;63509;45.250;38.102;2023-02-24T01:57:44;15.75;;;6.63;;
74945;SDS011;63509;45.250;38.102;2023-02-24T02:00:12;13.55;;;5.45;;
74945;SDS011;63509;45.250;38.102;2023-02-24T02:02:59;10.45;;;6.72;;
74945;SDS011;63509;45.250;38.102;2023-02-24T02:05:32;14.30;;;8.00;;
74945;SDS011;63509;45.250;38.102;2023-02-24T02:07:58;9.43;;;5.43;;
74945;SDS011;63509;45.250;38.102;2023-02-24T02:10:25;17.15;;;6.70;;
74945;SDS011;63509;45.250;38.102;2023-02-24T02:12:53;14.77;;;6.45;;
74945;SDS011;63509;45.250;38.102;2023-02-24T02:15:20;14.57;;;6.78;;
74945;SDS011;63509;45.250;38.102;2023-02-24T02:18:02;26.20;;;5.25;;
74945;SDS011;63509;45.250;38.102;2023-02-24T02:21:22;16.50;;;6.00;;
74945;SDS011;63509;45.250;38.102;2023-02-24T02:23:53;11.20;;;5.80;;
74945;SDS011;63509;45.250;38.102;2023-02-24T02:35:15;11.35;;;5.40;;
74945;SDS011;63509;45.250;38.102;2023-02-24T02:37:58;17.90;;;6.30;;
74945;SDS011;63509;45.250;38.102;2023-02-24T02:40:36;14.95;;;6.25;;
74945;SDS011;63509;45.250;38.102;2023-02-24T02:43:37;8.95;;;5.20;;
74945;SDS011;63509;45.250;38.102;2023-02-24T02:46:28;10.73;;;5.43;;
74945;SDS011;63509;45.250;38.102;2023-02-24T02:51:49;10.20;;;4.82;;
74945;SDS011;63509;45.250;38.102;2023-02-24T02:54:23;8.00;;;4.38;;
74945;SDS011;63509;45.250;38.102;2023-02-24T02:59:22;19.17;;;5.30;;
74945;SDS011;63509;45.250;38.102;2023-02-24T03:01:51;9.80;;;5.47;;
74945;SDS011;63509;45.250;38.102;2023-02-24T03:04:26;9.35;;;5.13;;
74945;SDS011;63509;45.250;38.102;2023-02-24T03:07:00;7.63;;;4.28;;
74945;SDS011;63509;45.250;38.102;2023-02-24T03:09:38;9.32;;;4.93;;
74945;SDS011;63509;45.250;38.102;2023-02-24T03:12:09;10.55;;;5.80;;
74945;SDS011;63509;45.250;38.102;2023-02-24T03:14:41;9.85;;;5.07;;
74945;SDS011;63509;45.250;38.102;2023-02-24T03:17:16;12.15;;;5.43;;
74945;SDS011;63509;45.250;38.102;2023-02-24T03:19:48;13.60;;;6.53;;
74945;SDS011;63509;45.250;38.102;2023-02-24T03:22:34;11.48;;;5.43;;
74945;SDS011;63509;45.250;38.102;2023-02-24T03:25:08;13.55;;;6.30;;
74945;SDS011;63509;45.250;38.102;2023-02-24T03:27:48;11.98;;;6.05;;
74945;SDS011;63509;45.250;38.102;2023-02-24T03:30:23;14.00;;;5.97;;
74945;SDS011;63509;45.250;38.102;2023-02-24T03:35:30;25.98;;;5.03;;
74945;SDS011;63509;45.250;38.102;2023-02-24T03:38:02;14.43;;;7.15;;
74945;SDS011;63509;45.250;38.102;2023-02-24T03:40:31;11.45;;;6.22;;
74945;SDS011;63509;45.250;38.102;2023-02-24T03:43:23;7.00;;;4.53;;
74945;SDS011;63509;45.250;38.102;2023-02-24T03:45:51;10.35;;;5.78;;
74945;SDS011;63509;45.250;38.102;2023-02-24T03:48:18;11.18;;;6.35;;
74945;SDS011;63509;45.250;38.102;2023-02-24T03:50:44;15.48;;;6.28;;
74945;SDS011;63509;45.250;38.102;2023-02-24T03:59:49;14.73;;;8.50;;
74945;SDS011;63509;45.250;38.102;2023-02-24T04:02:45;13.85;;;7.95;;
74945;SDS011;63509;45.250;38.102;2023-02-24T04:05:19;20.10;;;8.38;;
74945;SDS011;63509;45.250;38.102;2023-02-24T04:08:00;16.00;;;7.40;;
74945;SDS011;63509;45.250;38.102;2023-02-24T04:10:30;16.45;;;6.50;;
74945;SDS011;63509;45.250;38.102;2023-02-24T04:16:13;38.53;;;9.98;;
74945;SDS011;63509;45.250;38.102;2023-02-24T04:18:52;11.48;;;6.60;;
74945;SDS011;63509;45.250;38.102;2023-02-24T04:21:30;12.35;;;6.35;;
74945;SDS011;63509;45.250;38.102;2023-02-24T04:23:58;12.13;;;7.35;;
74945;SDS011;63509;45.250;38.102;2023-02-24T04:26:32;13.77;;;6.63;;
74945;SDS011;63509;45.250;38.102;2023-02-24T04:29:00;16.40;;;9.00;;
74945;SDS011;63509;45.250;38.102;2023-02-24T04:31:27;13.40;;;6.50;;
74945;SDS011;63509;45.250;38.102;2023-02-24T04:33:56;14.82;;;9.52;;
74945;SDS011;63509;45.250;38.102;2023-02-24T04:36:32;25.70;;;9.38;;
74945;SDS011;63509;45.250;38.102;2023-02-24T04:38:58;29.10;;;12.73;;
74945;SDS011;63509;45.250;38.102;2023-02-24T04:41:25;55.42;;;10.05;;
74945;SDS011;63509;45.250;38.102;2023-02-24T04:43:51;23.75;;;8.40;;
74945;SDS011;63509;45.250;38.102;2023-02-24T04:46:18;22.77;;;9.82;;
74945;SDS011;63509;45.250;38.102;2023-02-24T04:48:44;21.83;;;8.23;;
74945;SDS011;63509;45.250;38.102;2023-02-24T04:51:10;16.13;;;9.15;;
74945;SDS011;63509;45.250;38.102;2023-02-24T04:53:38;15.70;;;8.98;;
74945;SDS011;63509;45.250;38.102;2023-02-24T04:56:04;28.83;;;9.52;;
74945;SDS011;63509;45.250;38.102;2023-02-24T04:58:34;25.38;;;8.82;;
74945;SDS011;63509;45.250;38.102;2023-02-24T05:01:05;18.08;;;8.55;;
74945;SDS011;63509;45.250;38.102;2023-02-24T05:03:34;15.63;;;8.45;;
74945;SDS011;63509;45.250;38.102;2023-02-24T05:06:01;26.75;;;9.77;;
74945;SDS011;63509;45.250;38.102;2023-02-24T05:08:28;15.73;;;9.27;;
74945;SDS011;63509;45.250;38.102;2023-02-24T05:10:55;19.75;;;11.93;;
74945;SDS011;63509;45.250;38.102;2023-02-24T05:13:24;18.15;;;10.40;;
74945;SDS011;63509;45.250;38.102;2023-02-24T05:15:56;28.35;;;10.05;;
74945;SDS011;63509;45.250;38.102;2023-02-24T05:18:24;16.98;;;9.02;;
74945;SDS011;63509;45.250;38.102;2023-02-24T05:20:54;19.05;;;10.55;;
74945;SDS011;63509;45.250;38.102;2023-02-24T05:23:43;12.93;;;7.18;;
74945;SDS011;63509;45.250;38.102;2023-02-24T05:26:14;23.75;;;12.13;;
74945;SDS011;63509;45.250;38.102;2023-02-24T05:28:42;20.08;;;10.20;;
74945;SDS011;63509;45.250;38.102;2023-02-24T05:31:12;26.65;;;10.82;;
74945;SDS011;63509;45.250;38.102;2023-02-24T05:33:42;23.83;;;10.40;;
74945;SDS011;63509;45.250;38.102;2023-02-24T05:36:11;17.50;;;8.43;;
74945;SDS011;63509;45.250;38.102;2023-02-24T05:38:49;18.08;;;9.65;;
74945;SDS011;63509;45.250;38.102;2023-02-24T05:46:41;20.75;;;6.65;;
74945;SDS011;63509;45.250;38.102;2023-02-24T05:49:17;21.45;;;8.88;;
74945;SDS011;63509;45.250;38.102;2023-02-24T05:51:52;30.73;;;10.27;;
74945;SDS011;63509;45.250;38.102;2023-02-24T05:54:20;15.93;;;7.90;;
74945;SDS011;63509;45.250;38.102;2023-02-24T05:56:50;28.42;;;11.88;;
74945;SDS011;63509;45.250;38.102;2023-02-24T05:59:16;47.75;;;12.57;;
74945;SDS011;63509;45.250;38.102;2023-02-24T06:01:46;47.95;;;13.65;;
74945;SDS011;63509;45.250;38.102;2023-02-24T06:04:14;18.20;;;9.10;;
74945;SDS011;63509;45.250;38.102;2023-02-24T06:07:00;19.50;;;9.52;;
74945;SDS011;63509;45.250;38.102;2023-02-24T06:09:27;20.65;;;10.75;;
74945;SDS011;63509;45.250;38.102;2023-02-24T06:11:53;20.75;;;10.50;;
74945;SDS011;63509;45.250;38.102;2023-02-24T06:14:20;25.40;;;10.93;;
74945;SDS011;63509;45.250;38.102;2023-02-24T06:16:46;20.95;;;7.82;;
74945;SDS011;63509;45.250;38.102;2023-02-24T06:19:12;24.80;;;9.95;;
74945;SDS011;63509;45.250;38.102;2023-02-24T06:21:39;25.98;;;8.80;;
74945;SDS011;63509;45.250;38.102;2023-02-24T06:24:06;30.90;;;11.70;;
74945;SDS011;63509;45.250;38.102;2023-02-24T06:26:39;17.05;;;9.32;;
74945;SDS011;63509;45.250;38.102;2023-02-24T06:29:15;33.63;;;7.80;;
74945;SDS011;63509;45.250;38.102;2023-02-24T06:31:43;43.75;;;11.25;;
74945;SDS011;63509;45.250;38.102;2023-02-24T06:34:09;47.13;;;10.70;;
74945;SDS011;63509;45.250;38.102;2023-02-24T06:36:37;25.77;;;10.45;;
74945;SDS011;63509;45.250;38.102;2023-02-24T06:39:04;26.48;;;8.85;;
74945;SDS011;63509;45.250;38.102;2023-02-24T06:41:34;24.00;;;10.20;;
74945;SDS011;63509;45.250;38.102;2023-02-24T06:44:02;18.90;;;9.27;;
74945;SDS011;63509;45.250;38.102;2023-02-24T06:46:28;21.73;;;9.27;;
74945;SDS011;63509;45.250;38.102;2023-02-24T06:48:55;28.85;;;8.93;;
74945;SDS011;63509;45.250;38.102;2023-02-24T06:51:22;20.33;;;8.65;;
74945;SDS011;63509;45.250;38.102;2023-02-24T06:53:49;22.27;;;10.15;;
74945;SDS011;63509;45.250;38.102;2023-02-24T06:56:16;19.27;;;7.38;;
74945;SDS011;63509;45.250;38.102;2023-02-24T06:58:45;23.77;;;10.60;;
74945;SDS011;63509;45.250;38.102;2023-02-24T07:01:18;18.50;;;8.70;;
74945;SDS011;63509;45.250;38.102;2023-02-24T07:03:50;14.85;;;7.53;;
74945;SDS011;63509;45.250;38.102;2023-02-24T07:06:27;18.08;;;7.75;;
74945;SDS011;63509;45.250;38.102;2023-02-24T07:08:59;19.88;;;7.93;;
74945;SDS011;63509;45.250;38.102;2023-02-24T07:11:32;26.02;;;10.55;;
74945;SDS011;63509;45.250;38.102;2023-02-24T07:13:58;25.83;;;9.52;;
74945;SDS011;63509;45.250;38.102;2023-02-24T07:16:25;23.35;;;12.00;;
74945;SDS011;63509;45.250;38.102;2023-02-24T07:18:53;24.42;;;10.02;;
74945;SDS011;63509;45.250;38.102;2023-02-24T07:21:21;15.02;;;7.57;;
74945;SDS011;63509;45.250;38.102;2023-02-24T07:23:48;19.35;;;8.05;;
74945;SDS011;63509;45.250;38.102;2023-02-24T07:26:21;18.33;;;9.75;;
74945;SDS011;63509;45.250;38.102;2023-02-24T07:28:49;21.92;;;9.15;;
74945;SDS011;63509;45.250;38.102;2023-02-24T07:31:19;22.70;;;8.68;;
74945;SDS011;63509;45.250;38.102;2023-02-24T07:33:51;21.65;;;8.55;;
74945;SDS011;63509;45.250;38.102;2023-02-24T07:36:20;21.75;;;9.75;;
74945;SDS011;63509;45.250;38.102;2023-02-24T07:38:52;21.75;;;9.07;;
74945;SDS011;63509;45.250;38.102;2023-02-24T07:41:21;53.60;;;11.55;;
74945;SDS011;63509;45.250;38.102;2023-02-24T07:43:49;27.33;;;7.85;;
74945;SDS011;63509;45.250;38.102;2023-02-24T07:46:17;14.25;;;6.97;;
74945;SDS011;63509;45.250;38.102;2023-02-24T07:48:45;18.83;;;8.43;;
74945;SDS011;63509;45.250;38.102;2023-02-24T07:51:12;15.38;;;7.50;;
74945;SDS011;63509;45.250;38.102;2023-02-24T07:53:40;40.10;;;9.27;;
74945;SDS011;63509;45.250;38.102;2023-02-24T07:56:07;16.17;;;7.32;;
74945;SDS011;63509;45.250;38.102;2023-02-24T07:58:39;21.23;;;8.35;;
74945;SDS011;63509;45.250;38.102;2023-02-24T08:01:09;24.60;;;8.73;;
74945;SDS011;63509;45.250;38.102;2023-02-24T08:03:58;21.63;;;10.00;;
74945;SDS011;63509;45.250;38.102;2023-02-24T08:06:33;18.45;;;8.27;;
74945;SDS011;63509;45.250;38.102;2023-02-24T08:09:05;33.78;;;9.23;;
74945;SDS011;63509;45.250;38.102;2023-02-24T08:11:43;23.38;;;8.60;;
74945;SDS011;63509;45.250;38.102;2023-02-24T08:14:13;16.83;;;8.70;;
74945;SDS011;63509;45.250;38.102;2023-02-24T08:16:41;23.73;;;8.75;;
74945;SDS011;63509;45.250;38.102;2023-02-24T08:19:09;37.35;;;12.00;;
74945;SDS011;63509;45.250;38.102;2023-02-24T08:21:39;21.20;;;9.82;;
74945;SDS011;63509;45.250;38.102;2023-02-24T08:24:29;24.23;;;9.73;;
74945;SDS011;63509;45.250;38.102;2023-02-24T08:27:00;25.38;;;9.38;;
74945;SDS011;63509;45.250;38.102;2023-02-24T08:29:33;18.65;;;7.65;;
74945;SDS011;63509;45.250;38.102;2023-02-24T08:32:19;12.90;;;7.55;;
74945;SDS011;63509;45.250;38.102;2023-02-24T08:34:48;21.00;;;7.75;;
74945;SDS011;63509;45.250;38.102;2023-02-24T08:37:19;23.70;;;8.73;;
74945;SDS011;63509;45.250;38.102;2023-02-24T08:39:45;20.40;;;9.63;;
74945;SDS011;63509;45.250;38.102;2023-02-24T08:42:11;24.52;;;8.98;;
74945;SDS011;63509;45.250;38.102;2023-02-24T08:44:39;28.30;;;9.80;;
74945;SDS011;63509;45.250;38.102;2023-02-24T08:47:05;26.55;;;10.45;;
74945;SDS011;63509;45.250;38.102;2023-02-24T08:49:35;20.65;;;8.73;;
74945;SDS011;63509;45.250;38.102;2023-02-24T08:52:03;25.58;;;9.93;;
74945;SDS011;63509;45.250;38.102;2023-02-24T08:54:31;37.88;;;10.07;;
74945;SDS011;63509;45.250;38.102;2023-02-24T08:56:58;18.23;;;8.30;;
74945;SDS011;63509;45.250;38.102;2023-02-24T08:59:34;30.73;;;9.43;;
74945;SDS011;63509;45.250;38.102;2023-02-24T09:02:13;18.73;;;8.38;;
74945;SDS011;63509;45.250;38.102;2023-02-24T09:04:55;19.83;;;7.55;;
74945;SDS011;63509;45.250;38.102;2023-02-24T09:07:24;17.25;;;7.75;;
74945;SDS011;63509;45.250;38.102;2023-02-24T09:09:50;23.88;;;10.05;;
74945;SDS011;63509;45.250;38.102;2023-02-24T09:12:24;21.75;;;9.38;;
74945;SDS011;63509;45.250;38.102;2023-02-24T09:14:54;16.58;;;7.40;;
74945;SDS011;63509;45.250;38.102;2023-02-24T09:17:23;24.27;;;8.25;;
74945;SDS011;63509;45.250;38.102;2023-02-24T09:23:05;22.88;;;9.82;;
74945;SDS011;63509;45.250;38.102;2023-02-24T09:25:36;20.27;;;9.30;;
74945;SDS011;63509;45.250;38.102;2023-02-24T09:30:45;18.90;;;9.27;;
74945;SDS011;63509;45.250;38.102;2023-02-24T09:33:31;26.38;;;10.57;;
74945;SDS011;63509;45.250;38.102;2023-02-24T09:36:12;31.02;;;10.05;;
74945;SDS011;63509;45.250;38.102;2023-02-24T09:38:55;28.35;;;11.45;;
74945;SDS011;63509;45.250;38.102;2023-02-24T09:41:31;20.98;;;8.20;;
74945;SDS011;63509;45.250;38.102;2023-02-24T09:44:24;24.52;;;9.57;;
74945;SDS011;63509;45.250;38.102;2023-02-24T09:52:13;16.45;;;9.35;;
74945;SDS011;63509;45.250;38.102;2023-02-24T09:54:46;21.02;;;8.93;;
74945;SDS011;63509;45.250;38.102;2023-02-24T09:57:35;37.95;;;9.35;;
74945;SDS011;63509;45.250;38.102;2023-02-24T10:00:28;22.92;;;9.00;;
74945;SDS011;63509;45.250;38.102;2023-02-24T10:03:08;28.40;;;12.50;;
74945;SDS011;63509;45.250;38.102;2023-02-24T10:06:24;28.50;;;10.32;;
74945;SDS011;63509;45.250;38.102;2023-02-24T10:09:08;17.55;;;8.35;;
74945;SDS011;63509;45.250;38.102;2023-02-24T10:11:54;16.63;;;7.57;;
74945;SDS011;63509;45.250;38.102;2023-02-24T10:17:15;22.20;;;9.82;;
74945;SDS011;63509;45.250;38.102;2023-02-24T10:19:50;16.95;;;8.30;;
74945;SDS011;63509;45.250;38.102;2023-02-24T10:35:50;17.35;;;7.43;;
74945;SDS011;63509;45.250;38.102;2023-02-24T10:38:27;17.85;;;7.70;;
74945;SDS011;63509;45.250;38.102;2023-02-24T10:40:55;19.88;;;7.50;;
74945;SDS011;63509;45.250;38.102;2023-02-24T10:43:22;16.60;;;7.40;;
74945;SDS011;63509;45.250;38.102;2023-02-24T10:45:58;31.10;;;9.45;;
74945;SDS011;63509;45.250;38.102;2023-02-24T10:48:48;41.60;;;9.55;;
74945;SDS011;63509;45.250;38.102;2023-02-24T10:51:17;25.83;;;8.88;;
74945;SDS011;63509;45.250;38.102;2023-02-24T10:54:01;23.63;;;8.23;;
74945;SDS011;63509;45.250;38.102;2023-02-24T10:59:44;17.42;;;6.88;;
74945;SDS011;63509;45.250;38.102;2023-02-24T11:05:20;16.92;;;6.95;;
74945;SDS011;63509;45.250;38.102;2023-02-24T11:08:17;13.95;;;6.85;;
74945;SDS011;63509;45.250;38.102;2023-02-24T11:11:15;30.25;;;9.00;;
74945;SDS011;63509;45.250;38.102;2023-02-24T11:13:53;16.33;;;8.18;;
74945;SDS011;63509;45.250;38.102;2023-02-24T11:16:54;19.90;;;7.53;;
74945;SDS011;63509;45.250;38.102;2023-02-24T11:22:15;29.55;;;7.80;;
74945;SDS011;63509;45.250;38.102;2023-02-24T11:24:48;34.85;;;7.57;;
74945;SDS011;63509;45.250;38.102;2023-02-24T11:27:20;16.50;;;7.95;;
74945;SDS011;63509;45.250;38.102;2023-02-24T11:35:27;16.23;;;7.05;;
74945;SDS011;63509;45.250;38.102;2023-02-24T11:41:11;23.85;;;7.18;;
74945;SDS011;63509;45.250;38.102;2023-02-24T11:43:55;35.10;;;9.93;;
74945;SDS011;63509;45.250;38.102;2023-02-24T11:46:33;26.80;;;7.38;;
74945;SDS011;63509;45.250;38.102;2023-02-24T11:49:13;18.13;;;7.20;;
74945;SDS011;63509;45.250;38.102;2023-02-24T11:51:51;22.63;;;6.57;;
74945;SDS011;63509;45.250;38.102;2023-02-24T11:54:20;13.20;;;7.95;;
74945;SDS011;63509;45.250;38.102;2023-02-24T11:56:52;27.27;;;7.13;;
74945;SDS011;63509;45.250;38.102;2023-02-24T11:59:35;15.50;;;7.63;;
74945;SDS011;63509;45.250;38.102;2023-02-24T12:02:22;32.03;;;7.45;;
74945;SDS011;63509;45.250;38.102;2023-02-24T12:05:11;20.00;;;7.32;;
74945;SDS011;63509;45.250;38.102;2023-02-24T12:07:53;27.48;;;7.32;;
74945;SDS011;63509;45.250;38.102;2023-02-24T12:15:29;18.33;;;6.95;;
74945;SDS011;63509;45.250;38.102;2023-02-24T12:18:05;12.73;;;6.25;;
74945;SDS011;63509;45.250;38.102;2023-02-24T12:20:56;12.05;;;5.63;;
74945;SDS011;63509;45.250;38.102;2023-02-24T12:23:39;12.82;;;6.18;;
74945;SDS011;63509;45.250;38.102;2023-02-24T12:43:41;21.35;;;6.05;;
74945;SDS011;63509;45.250;38.102;2023-02-24T12:46:33;21.83;;;7.00;;
74945;SDS011;63509;45.250;38.102;2023-02-24T12:59:56;16.40;;;7.43;;
74945;SDS011;63509;45.250;38.102;2023-02-24T13:05:11;21.15;;;5.88;;
74945;SDS011;63509;45.250;38.102;2023-02-24T13:16:44;25.42;;;6.82;;
74945;SDS011;63509;45.250;38.102;2023-02-24T13:19:27;18.60;;;6.82;;
74945;SDS011;63509;45.250;38.102;2023-02-24T13:21:55;17.88;;;6.25;;
74945;SDS011;63509;45.250;38.102;2023-02-24T13:24:26;29.63;;;7.65;;
74945;SDS011;63509;45.250;38.102;2023-02-24T13:27:02;16.67;;;6.90;;
74945;SDS011;63509;45.250;38.102;2023-02-24T13:29:41;33.90;;;7.43;;
74945;SDS011;63509;45.250;38.102;2023-02-24T13:32:28;25.30;;;6.47;;
74945;SDS011;63509;45.250;38.102;2023-02-24T13:34:57;37.10;;;8.57;;
74945;SDS011;63509;45.250;38.102;2023-02-24T13:37:36;13.80;;;6.60;;
74945;SDS011;63509;45.250;38.102;2023-02-24T13:42:42;15.57;;;8.07;;
74945;SDS011;63509;45.250;38.102;2023-02-24T13:45:21;18.30;;;7.53;;
74945;SDS011;63509;45.250;38.102;2023-02-24T13:56:54;17.20;;;7.57;;
74945;SDS011;63509;45.250;38.102;2023-02-24T14:02:39;24.70;;;10.35;;
74945;SDS011;63509;45.250;38.102;2023-02-24T14:05:10;32.70;;;10.93;;
74945;SDS011;63509;45.250;38.102;2023-02-24T14:07:45;22.02;;;8.93;;
74945;SDS011;63509;45.250;38.102;2023-02-24T14:10:16;19.05;;;7.25;;
74945;SDS011;63509;45.250;38.102;2023-02-24T14:12:45;29.02;;;9.73;;
74945;SDS011;63509;45.250;38.102;2023-02-24T14:15:16;35.97;;;9.63;;
74945;SDS011;63509;45.250;38.102;2023-02-24T14:17:57;31.60;;;9.77;;
74945;SDS011;63509;45.250;38.102;2023-02-24T14:20:25;26.10;;;10.73;;
74945;SDS011;63509;45.250;38.102;2023-02-24T14:22:53;20.65;;;8.98;;
74945;SDS011;63509;45.250;38.102;2023-02-24T14:25:24;42.20;;;10.27;;
74945;SDS011;63509;45.250;38.102;2023-02-24T14:27:53;56.60;;;19.55;;
74945;SDS011;63509;45.250;38.102;2023-02-24T14:30:30;23.85;;;7.90;;
74945;SDS011;63509;45.250;38.102;2023-02-24T14:33:02;38.45;;;8.57;;
74945;SDS011;63509;45.250;38.102;2023-02-24T14:38:02;20.23;;;8.23;;
74945;SDS011;63509;45.250;38.102;2023-02-24T14:40:29;46.13;;;9.15;;
74945;SDS011;63509;45.250;38.102;2023-02-24T14:42:55;32.40;;;10.10;;
74945;SDS011;63509;45.250;38.102;2023-02-24T14:45:24;18.05;;;8.18;;
74945;SDS011;63509;45.250;38.102;2023-02-24T14:47:52;51.17;;;10.48;;
74945;SDS011;63509;45.250;38.102;2023-02-24T14:50:29;32.03;;;11.40;;
74945;SDS011;63509;45.250;38.102;2023-02-24T14:53:06;29.83;;;10.18;;
74945;SDS011;63509;45.250;38.102;2023-02-24T14:55:39;31.65;;;11.05;;
74945;SDS011;63509;45.250;38.102;2023-02-24T15:00:50;40.60;;;10.80;;
74945;SDS011;63509;45.250;38.102;2023-02-24T15:06:00;48.15;;;11.65;;
74945;SDS011;63509;45.250;38.102;2023-02-24T15:11:10;36.05;;;11.27;;
74945;SDS011;63509;45.250;38.102;2023-02-24T15:16:18;51.63;;;12.00;;
74945;SDS011;63509;45.250;38.102;2023-02-24T15:18:49;69.47;;;11.82;;
74945;SDS011;63509;45.250;38.102;2023-02-24T15:21:21;57.67;;;14.82;;
74945;SDS011;63509;45.250;38.102;2023-02-24T15:23:57;60.00;;;16.52;;
74945;SDS011;63509;45.250;38.102;2023-02-24T15:26:32;73.80;;;19.13;;
74945;SDS011;63509;45.250;38.102;2023-02-24T15:29:00;58.40;;;17.27;;
74945;SDS011;63509;45.250;38.102;2023-02-24T15:31:36;52.10;;;16.95;;
74945;SDS011;63509;45.250;38.102;2023-02-24T15:34:02;82.85;;;17.15;;
74945;SDS011;63509;45.250;38.102;2023-02-24T15:36:33;50.78;;;16.77;;
74945;SDS011;63509;45.250;38.102;2023-02-24T15:41:38;40.40;;;13.35;;
74945;SDS011;63509;45.250;38.102;2023-02-24T15:44:23;41.17;;;15.05;;
74945;SDS011;63509;45.250;38.102;2023-02-24T15:46:51;48.45;;;15.07;;
74945;SDS011;63509;45.250;38.102;2023-02-24T15:49:17;45.08;;;14.02;;
74945;SDS011;63509;45.250;38.102;2023-02-24T15:51:45;34.40;;;13.32;;
74945;SDS011;63509;45.250;38.102;2023-02-24T15:56:42;37.88;;;11.90;;
74945;SDS011;63509;45.250;38.102;2023-02-24T15:59:14;39.38;;;12.50;;
74945;SDS011;63509;45.250;38.102;2023-02-24T16:01:43;38.28;;;11.60;;
74945;SDS011;63509;45.250;38.102;2023-02-24T16:04:11;50.55;;;12.00;;
74945;SDS011;63509;45.250;38.102;2023-02-24T16:06:38;39.25;;;12.85;;
74945;SDS011;63509;45.250;38.102;2023-02-24T16:09:11;38.13;;;14.27;;
74945;SDS011;63509;45.250;38.102;2023-02-24T16:11:40;35.60;;;9.73;;
74945;SDS011;63509;45.250;38.102;2023-02-24T16:14:11;45.92;;;11.23;;
74945;SDS011;63509;45.250;38.102;2023-02-24T16:16:40;32.20;;;10.48;;
74945;SDS011;63509;45.250;38.102;2023-02-24T16:19:07;38.90;;;8.93;;
74945;SDS011;63509;45.250;38.102;2023-02-24T16:21:38;35.90;;;9.90;;
74945;SDS011;63509;45.250;38.102;2023-02-24T16:24:04;51.85;;;9.43;;
74945;SDS011;63509;45.250;38.102;2023-02-24T16:26:32;29.83;;;9.82;;
74945;SDS011;63509;45.250;38.102;2023-02-24T16:29:01;47.20;;;8.57;;
74945;SDS011;63509;45.250;38.102;2023-02-24T16:31:27;43.03;;;7.57;;
74945;SDS011;63509;45.250;38.102;2023-02-24T16:33:53;22.48;;;7.78;;
74945;SDS011;63509;45.250;38.102;2023-02-24T16:36:21;42.00;;;7.72;;
74945;SDS011;63509;45.250;38.102;2023-02-24T16:38:49;33.80;;;6.25;;
74945;SDS011;63509;45.250;38.102;2023-02-24T16:41:16;45.92;;;8.20;;
74945;SDS011;63509;45.250;38.102;2023-02-24T16:43:43;49.63;;;7.25;;
74945;SDS011;63509;45.250;38.102;2023-02-24T16:46:12;50.75;;;8.05;;
74945;SDS011;63509;45.250;38.102;2023-02-24T16:48:50;20.88;;;7.55;;
74945;SDS011;63509;45.250;38.102;2023-02-24T16:51:18;41.10;;;5.80;;
74945;SDS011;63509;45.250;38.102;2023-02-24T16:53:46;36.15;;;5.18;;
74945;SDS011;63509;45.250;38.102;2023-02-24T16:58:43;19.25;;;5.05;;
74945;SDS011;63509;45.250;38.102;2023-02-24T17:01:14;41.30;;;5.13;;
74945;SDS011;63509;45.250;38.102;2023-02-24T17:03:46;32.50;;;5.85;;
74945;SDS011;63509;45.250;38.102;2023-02-24T17:06:17;40.20;;;8.50;;
74945;SDS011;63509;45.250;38.102;2023-02-24T17:08:44;21.80;;;5.75;;
74945;SDS011;63509;45.250;38.102;2023-02-24T17:11:16;30.60;;;6.57;;
74945;SDS011;63509;45.250;38.102;2023-02-24T17:13:45;28.92;;;5.20;;
74945;SDS011;63509;45.250;38.102;2023-02-24T17:16:12;29.33;;;5.35;;
74945;SDS011;63509;45.250;38.102;2023-02-24T17:18:41;19.02;;;4.32;;
74945;SDS011;63509;45.250;38.102;2023-02-24T17:21:08;17.02;;;5.03;;
74945;SDS011;63509;45.250;38.102;2023-02-24T17:23:38;17.27;;;5.32;;
74945;SDS011;63509;45.250;38.102;2023-02-24T17:26:06;12.32;;;5.55;;
74945;SDS011;63509;45.250;38.102;2023-02-24T17:28:34;17.00;;;4.35;;
74945;SDS011;63509;45.250;38.102;2023-02-24T17:31:01;14.05;;;5.00;;